Alum Bridge, West Virginia
Current Conditions -  °F | °C
As of 9:55 PM on Monday 20 Oct 2014 (Local Time) from KW22 Reporting Station
Drizzle Drizzle  
Wind Chill: 10°   Ceiling: 5500
Heat Index: 10°   Visibility: 9mi
Dew Point:   Wind: 0mph
Humidity: 87%   Direction: NA
Pressure: 29.93"   Gusts: NA
Location:  39.04°N, 80.66°W
Report Text: KW22 210155Z AUTO 00000KT 9SM -DZ FEW019 SCT047 BKN055 10/08 A2993 RMK AO2
Loading
Personal Weather Stations






























Interactive Weather Map
Tropical Storm Tracking
New forecast layout! Learn more

10-Day Weather Forecast

Advertisements
Track Severe Weather on mobile